Time;durP1;ratioP1;P1;durP2;ratioP2;P2;SDS_P1;SDS_P2;PMS_P1;PMS_P2;Temp;Humidity;BMP_temperature;BMP_pressure;BME280_temperature;BME280_humidity;BME280_pressure;Samples;Min_cycle;Max_cycle;Signal;HPM_P1;HPM_P2
2022/11/27 00:01:30;;;;;;;17.53;7.20;;;;;;;;;;5010750;28;20189;-66
2022/11/27 00:03:55;;;;;;;16.27;7.67;;;;;;;;;;5022210;28;20210;-66
2022/11/27 00:06:23;;;;;;;18.00;7.00;;;;;;;;;;5025260;28;20431;-66
2022/11/27 00:08:49;;;;;;;19.83;7.43;;;;;;;;;;5016844;28;20614;-66
2022/11/27 00:11:19;;;;;;;25.27;7.70;;;;;;;;;;5014914;28;20261;-66
2022/11/27 00:13:45;;;;;;;22.13;7.53;;;;;;;;;;5025843;28;20289;-66
2022/11/27 00:16:12;;;;;;;22.10;7.47;;;;;;;;;;5032399;28;20709;-66
2022/11/27 00:18:38;;;;;;;27.60;7.17;;;;;;;;;;5021733;28;20295;-66
2022/11/27 00:21:06;;;;;;;22.90;7.73;;;;;;;;;;5028790;28;20284;-66
2022/11/27 00:23:32;;;;;;;16.90;6.90;;;;;;;;;;5020424;28;20549;-66
2022/11/27 00:25:57;;;;;;;27.87;7.00;;;;;;;;;;5034646;28;20236;-66
2022/11/27 00:28:23;;;;;;;25.40;7.77;;;;;;;;;;5029345;28;20190;-66
2022/11/27 00:30:48;;;;;;;30.10;8.07;;;;;;;;;;5021623;28;20213;-66
2022/11/27 00:33:13;;;;;;;18.20;7.13;;;;;;;;;;5018264;28;20302;-66
2022/11/27 00:35:39;;;;;;;20.20;6.43;;;;;;;;;;5025895;28;20359;-66
2022/11/27 00:38:04;;;;;;;21.87;7.23;;;;;;;;;;5025416;28;20313;-66
2022/11/27 00:40:30;;;;;;;20.33;6.93;;;;;;;;;;5025119;28;20277;-65
2022/11/27 00:42:55;;;;;;;21.60;6.77;;;;;;;;;;5022117;28;20183;-65
2022/11/27 00:45:21;;;;;;;25.43;7.23;;;;;;;;;;5017998;28;20194;-65
2022/11/27 00:47:46;;;;;;;20.03;6.83;;;;;;;;;;5018150;28;20278;-65
2022/11/27 00:50:11;;;;;;;23.77;7.07;;;;;;;;;;5032979;28;20196;-65
2022/11/27 00:52:37;;;;;;;20.67;6.43;;;;;;;;;;5031097;28;20557;-65
2022/11/27 00:55:02;;;;;;;26.73;7.77;;;;;;;;;;5027511;28;20190;-65
2022/11/27 00:57:28;;;;;;;23.60;8.00;;;;;;;;;;5023146;28;20678;-65
2022/11/27 00:59:53;;;;;;;19.27;7.60;;;;;;;;;;5021927;28;20194;-65
2022/11/27 01:02:18;;;;;;;23.33;7.00;;;;;;;;;;5029904;28;20185;-65
2022/11/27 01:04:45;;;;;;;16.97;7.23;;;;;;;;;;5028290;28;20251;-65
2022/11/27 01:07:11;;;;;;;21.13;6.97;;;;;;;;;;5021420;28;20693;-65
2022/11/27 01:09:36;;;;;;;16.10;7.03;;;;;;;;;;5025571;28;20186;-65
2022/11/27 01:12:02;;;;;;;19.63;6.77;;;;;;;;;;5028364;28;20194;-65
2022/11/27 01:14:28;;;;;;;20.80;7.00;;;;;;;;;;5024151;28;20198;-65
2022/11/27 01:16:53;;;;;;;21.67;6.20;;;;;;;;;;5027251;28;20343;-65
2022/11/27 01:19:18;;;;;;;22.80;7.03;;;;;;;;;;5026039;28;20193;-65
2022/11/27 01:21:44;;;;;;;16.07;6.90;;;;;;;;;;5018043;28;20212;-65
2022/11/27 01:24:12;;;;;;;20.40;6.97;;;;;;;;;;5018554;28;20182;-65
2022/11/27 01:26:37;;;;;;;16.63;7.80;;;;;;;;;;5031140;28;20548;-65
2022/11/27 01:29:03;;;;;;;22.07;6.77;;;;;;;;;;5020960;28;20197;-65
2022/11/27 01:31:31;;;;;;;23.03;7.23;;;;;;;;;;5014720;28;20664;-65
2022/11/27 01:33:59;;;;;;;16.50;7.30;;;;;;;;;;5020177;28;20244;-65
2022/11/27 01:36:25;;;;;;;20.13;6.53;;;;;;;;;;5016282;28;20230;-65
2022/11/27 01:38:51;;;;;;;21.30;6.90;;;;;;;;;;5021170;28;20333;-65
2022/11/27 01:41:19;;;;;;;21.33;7.27;;;;;;;;;;5020263;28;20198;-65
2022/11/27 01:43:48;;;;;;;22.47;6.70;;;;;;;;;;5013435;28;20382;-65
2022/11/27 01:46:27;;;;;;;23.83;6.60;;;;;;;;;;5015770;28;20194;-66
2022/11/27 01:48:56;;;;;;;16.23;6.23;;;;;;;;;;5022007;28;20286;-65
2022/11/27 01:51:23;;;;;;;19.67;6.97;;;;;;;;;;5024810;28;20260;-65
2022/11/27 01:53:50;;;;;;;17.53;6.87;;;;;;;;;;5028563;28;20190;-66
2022/11/27 01:56:16;;;;;;;20.00;6.03;;;;;;;;;;5028958;28;20214;-65
2022/11/27 01:58:41;;;;;;;23.43;6.57;;;;;;;;;;5009798;28;20198;-65
2022/11/27 02:01:06;;;;;;;18.83;6.60;;;;;;;;;;5010618;28;20183;-65
2022/11/27 02:03:32;;;;;;;17.30;6.30;;;;;;;;;;5027967;28;20190;-65
2022/11/27 02:05:58;;;;;;;17.23;6.13;;;;;;;;;;5014799;28;20646;-65
2022/11/27 02:08:24;;;;;;;20.90;5.90;;;;;;;;;;5014889;28;20193;-65
2022/11/27 02:10:55;;;;;;;21.83;6.00;;;;;;;;;;5024215;28;20200;-65
2022/11/27 02:13:32;;;;;;;24.10;6.07;;;;;;;;;;5023795;28;20205;-65
2022/11/27 02:16:16;;;;;;;24.67;7.00;;;;;;;;;;5021653;28;20205;-66
2022/11/27 02:19:12;;;;;;;19.70;5.70;;;;;;;;;;5020169;28;20198;-65
2022/11/27 02:21:48;;;;;;;21.57;7.67;;;;;;;;;;5024815;28;20186;-65
2022/11/27 02:24:40;;;;;;;19.80;6.67;;;;;;;;;;5026795;28;20226;-67
2022/11/27 02:27:40;;;;;;;18.13;6.03;;;;;;;;;;5018750;28;20182;-65
2022/11/27 02:30:06;;;;;;;16.60;5.47;;;;;;;;;;5021150;28;20285;-65
2022/11/27 02:32:39;;;;;;;21.33;5.50;;;;;;;;;;5013891;28;20640;-65
2022/11/27 02:35:15;;;;;;;15.13;5.37;;;;;;;;;;5027427;28;20210;-65
2022/11/27 02:38:00;;;;;;;18.47;5.13;;;;;;;;;;5025887;28;20245;-65
2022/11/27 02:40:33;;;;;;;17.67;5.03;;;;;;;;;;5025615;28;20193;-65
2022/11/27 02:43:10;;;;;;;24.00;5.50;;;;;;;;;;5015114;28;20190;-65
2022/11/27 02:45:43;;;;;;;15.13;4.93;;;;;;;;;;5018881;28;20193;-65
2022/11/27 02:48:12;;;;;;;16.63;5.20;;;;;;;;;;5015167;28;20183;-65
2022/11/27 02:50:40;;;;;;;17.37;5.67;;;;;;;;;;5017917;28;20194;-66
2022/11/27 02:53:18;;;;;;;17.20;5.33;;;;;;;;;;5009868;28;20187;-66
2022/11/27 02:55:45;;;;;;;17.77;5.63;;;;;;;;;;5025933;28;20244;-66
2022/11/27 02:58:16;;;;;;;12.33;5.07;;;;;;;;;;5028811;28;20196;-66
2022/11/27 03:00:43;;;;;;;15.60;5.53;;;;;;;;;;5024245;28;20182;-66
2022/11/27 03:03:12;;;;;;;17.27;5.07;;;;;;;;;;5018193;28;20201;-66
2022/11/27 03:05:42;;;;;;;20.77;5.07;;;;;;;;;;5013462;28;20182;-66
2022/11/27 03:08:37;;;;;;;15.53;4.73;;;;;;;;;;5014226;28;20642;-66
2022/11/27 03:11:11;;;;;;;19.47;6.03;;;;;;;;;;5013897;28;20210;-66
2022/11/27 03:13:42;;;;;;;13.90;4.57;;;;;;;;;;5028513;28;20196;-66
2022/11/27 03:16:19;;;;;;;13.17;4.93;;;;;;;;;;5020331;28;20220;-66
2022/11/27 03:19:03;;;;;;;17.80;5.33;;;;;;;;;;5021489;28;20260;-66
2022/11/27 03:21:33;;;;;;;11.27;4.10;;;;;;;;;;5019253;28;20227;-66
2022/11/27 03:24:00;;;;;;;16.03;4.33;;;;;;;;;;5024674;28;20261;-66
2022/11/27 03:26:25;;;;;;;10.97;4.33;;;;;;;;;;5026202;28;20285;-66
2022/11/27 03:28:53;;;;;;;14.67;5.27;;;;;;;;;;5028822;28;20206;-66
2022/11/27 03:31:19;;;;;;;11.43;4.07;;;;;;;;;;5016453;28;20187;-66
2022/11/27 03:33:44;;;;;;;19.63;4.57;;;;;;;;;;5015597;28;20298;-66
2022/11/27 03:36:19;;;;;;;13.23;4.40;;;;;;;;;;5019354;28;21321;-66
2022/11/27 03:38:46;;;;;;;16.67;4.40;;;;;;;;;;5027643;28;20196;-66
2022/11/27 03:41:24;;;;;;;11.77;3.90;;;;;;;;;;5017053;28;20547;-66
2022/11/27 03:44:28;;;;;;;11.93;4.20;;;;;;;;;;5026982;28;20649;-66
2022/11/27 03:47:01;;;;;;;12.17;4.33;;;;;;;;;;5022511;28;20245;-66
2022/11/27 03:50:03;;;;;;;20.43;4.10;;;;;;;;;;5019503;28;20193;-66
2022/11/27 03:52:42;;;;;;;14.30;3.80;;;;;;;;;;5027493;28;20177;-66
2022/11/27 03:55:42;;;;;;;12.77;3.53;;;;;;;;;;5019359;28;20579;-66
2022/11/27 03:58:18;;;;;;;14.07;5.03;;;;;;;;;;5003868;28;20568;-65
2022/11/27 04:00:44;;;;;;;14.20;4.00;;;;;;;;;;5011848;28;20196;-66
2022/11/27 04:03:12;;;;;;;10.27;3.60;;;;;;;;;;5008187;28;20191;-66
2022/11/27 04:05:37;;;;;;;12.63;3.87;;;;;;;;;;5022428;28;20222;-65
2022/11/27 04:08:03;;;;;;;11.77;3.57;;;;;;;;;;5013404;28;20178;-65
2022/11/27 04:10:28;;;;;;;16.60;4.03;;;;;;;;;;5015832;28;20205;-66
2022/11/27 04:12:54;;;;;;;11.33;3.87;;;;;;;;;;5017133;28;20252;-66
2022/11/27 04:15:20;;;;;;;17.30;3.77;;;;;;;;;;5027806;28;20236;-66
2022/11/27 04:17:45;;;;;;;11.80;3.53;;;;;;;;;;5021705;28;20215;-66
2022/11/27 04:20:14;;;;;;;9.07;3.47;;;;;;;;;;5013819;28;20662;-66
2022/11/27 04:22:39;;;;;;;13.50;3.70;;;;;;;;;;5021035;28;20620;-66
2022/11/27 04:25:06;;;;;;;10.73;3.77;;;;;;;;;;5023782;28;20205;-65
2022/11/27 04:27:31;;;;;;;15.57;3.80;;;;;;;;;;5013785;28;20185;-66
2022/11/27 04:29:57;;;;;;;10.53;3.37;;;;;;;;;;5021137;28;20551;-66
2022/11/27 04:32:22;;;;;;;11.73;3.70;;;;;;;;;;5008329;28;20253;-66
2022/11/27 04:34:47;;;;;;;8.57;3.60;;;;;;;;;;5019641;28;20190;-65
2022/11/27 04:37:12;;;;;;;10.90;3.50;;;;;;;;;;5025884;28;20233;-67
2022/11/27 04:39:38;;;;;;;11.13;3.70;;;;;;;;;;5014626;28;20193;-66
2022/11/27 04:42:03;;;;;;;11.27;3.40;;;;;;;;;;5019952;28;20229;-65
2022/11/27 04:44:29;;;;;;;13.73;3.90;;;;;;;;;;5029645;28;20189;-65
2022/11/27 04:46:54;;;;;;;11.67;3.53;;;;;;;;;;5029977;28;20557;-66
2022/11/27 04:49:19;;;;;;;18.23;4.57;;;;;;;;;;5027940;28;20567;-66
2022/11/27 04:51:45;;;;;;;9.67;3.27;;;;;;;;;;5020608;28;20557;-65
2022/11/27 04:54:11;;;;;;;9.20;3.60;;;;;;;;;;5028215;28;20677;-66
2022/11/27 04:56:36;;;;;;;13.57;4.03;;;;;;;;;;5029596;28;20206;-66
2022/11/27 04:59:01;;;;;;;11.97;4.20;;;;;;;;;;5030729;28;20285;-66
2022/11/27 05:01:27;;;;;;;16.57;4.27;;;;;;;;;;5029427;28;20247;-65
2022/11/27 05:03:52;;;;;;;13.77;4.47;;;;;;;;;;5017265;28;20218;-66
2022/11/27 05:06:17;;;;;;;9.53;3.53;;;;;;;;;;5026593;28;20200;-65
2022/11/27 05:08:43;;;;;;;11.67;4.70;;;;;;;;;;5023087;28;20230;-66
2022/11/27 05:11:12;;;;;;;10.40;4.43;;;;;;;;;;5016594;28;20273;-66
2022/11/27 05:13:39;;;;;;;13.40;3.97;;;;;;;;;;5010651;28;20217;-65
2022/11/27 05:16:04;;;;;;;12.77;4.30;;;;;;;;;;5016350;28;20202;-65
2022/11/27 05:18:30;;;;;;;12.23;4.30;;;;;;;;;;5014061;28;20179;-65
2022/11/27 05:21:03;;;;;;;10.80;4.57;;;;;;;;;;5020020;28;20603;-65
2022/11/27 05:23:30;;;;;;;11.73;4.17;;;;;;;;;;5026673;28;20170;-65
2022/11/27 05:25:56;;;;;;;12.10;4.33;;;;;;;;;;5019065;28;20561;-65
2022/11/27 05:28:22;;;;;;;12.73;4.20;;;;;;;;;;5031206;28;20200;-65
2022/11/27 05:30:48;;;;;;;12.20;4.13;;;;;;;;;;5018799;28;20566;-65
2022/11/27 05:33:15;;;;;;;12.57;4.37;;;;;;;;;;5018312;28;20255;-66
2022/11/27 05:35:41;;;;;;;8.13;4.47;;;;;;;;;;5011481;28;20194;-65
2022/11/27 05:38:07;;;;;;;11.93;4.37;;;;;;;;;;5027138;28;20702;-65
2022/11/27 05:40:34;;;;;;;10.97;4.60;;;;;;;;;;5021680;28;20216;-66
2022/11/27 05:42:59;;;;;;;11.20;3.77;;;;;;;;;;5028873;28;20187;-65
2022/11/27 05:45:25;;;;;;;13.27;4.30;;;;;;;;;;5024147;28;20217;-65
2022/11/27 05:47:50;;;;;;;13.37;4.50;;;;;;;;;;5023795;28;20186;-65
2022/11/27 05:50:16;;;;;;;13.47;4.30;;;;;;;;;;5023940;28;20601;-65
2022/11/27 05:52:41;;;;;;;12.80;4.70;;;;;;;;;;5028551;28;20598;-65
2022/11/27 05:55:07;;;;;;;15.40;4.27;;;;;;;;;;5029862;28;20186;-65
2022/11/27 05:57:32;;;;;;;8.90;4.23;;;;;;;;;;5018173;28;20269;-65
2022/11/27 05:59:57;;;;;;;11.97;5.00;;;;;;;;;;5017298;28;20187;-65
2022/11/27 06:02:24;;;;;;;15.30;4.70;;;;;;;;;;5020946;28;20190;-65
2022/11/27 06:04:49;;;;;;;11.63;4.70;;;;;;;;;;5028547;28;20185;-65
2022/11/27 06:07:15;;;;;;;9.97;4.57;;;;;;;;;;5029789;28;20232;-65
2022/11/27 06:09:40;;;;;;;12.07;4.63;;;;;;;;;;5024832;28;20687;-65
2022/11/27 06:12:06;;;;;;;10.20;4.37;;;;;;;;;;5028805;28;20190;-65
2022/11/27 06:14:33;;;;;;;14.87;5.73;;;;;;;;;;5015593;28;20190;-65
2022/11/27 06:17:02;;;;;;;10.97;4.47;;;;;;;;;;5022650;28;20556;-65
2022/11/27 06:19:27;;;;;;;12.97;4.57;;;;;;;;;;5020439;28;20182;-65
2022/11/27 06:21:52;;;;;;;13.03;5.20;;;;;;;;;;5013865;28;20189;-65
2022/11/27 06:24:19;;;;;;;12.63;4.97;;;;;;;;;;5016764;28;20690;-65
2022/11/27 06:26:44;;;;;;;11.87;4.87;;;;;;;;;;5012145;28;20183;-65
2022/11/27 06:29:10;;;;;;;13.67;5.20;;;;;;;;;;5015043;28;20600;-65
2022/11/27 06:31:35;;;;;;;11.97;4.90;;;;;;;;;;5015208;28;20265;-65
2022/11/27 06:34:02;;;;;;;10.10;4.70;;;;;;;;;;5016046;28;20187;-65
2022/11/27 06:36:30;;;;;;;13.67;5.07;;;;;;;;;;5011257;28;20580;-65
2022/11/27 06:38:56;;;;;;;13.47;5.17;;;;;;;;;;5023586;28;20209;-65
2022/11/27 06:41:23;;;;;;;13.10;4.90;;;;;;;;;;5012652;28;20269;-65
2022/11/27 06:43:49;;;;;;;14.63;4.77;;;;;;;;;;5019390;28;20634;-65
2022/11/27 06:46:16;;;;;;;11.97;4.83;;;;;;;;;;5015101;28;20277;-65
2022/11/27 06:48:43;;;;;;;12.60;4.90;;;;;;;;;;5016423;28;20266;-65
2022/11/27 06:51:11;;;;;;;14.30;4.90;;;;;;;;;;5027267;28;20182;-65
2022/11/27 06:53:37;;;;;;;13.60;4.77;;;;;;;;;;5025929;28;20170;-66
2022/11/27 06:56:04;;;;;;;13.17;4.93;;;;;;;;;;5019765;28;20274;-66
2022/11/27 06:58:30;;;;;;;14.73;5.30;;;;;;;;;;5012900;28;20194;-66
2022/11/27 07:01:00;;;;;;;12.40;5.50;;;;;;;;;;5009510;28;20179;-65
2022/11/27 07:03:25;;;;;;;11.00;4.90;;;;;;;;;;5011669;28;20217;-65
2022/11/27 07:05:51;;;;;;;13.80;5.80;;;;;;;;;;5008586;28;20626;-65
2022/11/27 07:08:16;;;;;;;14.23;5.20;;;;;;;;;;5009514;28;20274;-66
2022/11/27 07:10:42;;;;;;;12.07;5.57;;;;;;;;;;5011977;28;20269;-65
2022/11/27 07:13:07;;;;;;;13.50;5.30;;;;;;;;;;5011461;28;20183;-65
2022/11/27 07:15:32;;;;;;;16.03;5.13;;;;;;;;;;5012371;28;20202;-66
2022/11/27 07:17:58;;;;;;;16.00;5.87;;;;;;;;;;5008708;28;20191;-65
2022/11/27 07:20:23;;;;;;;11.47;4.90;;;;;;;;;;5010626;28;20191;-65
2022/11/27 07:22:49;;;;;;;12.67;5.40;;;;;;;;;;5011099;28;20189;-65
2022/11/27 07:25:14;;;;;;;12.80;5.57;;;;;;;;;;5009910;28;20183;-65
2022/11/27 07:27:40;;;;;;;9.90;4.63;;;;;;;;;;5011778;28;20554;-65
2022/11/27 07:30:06;;;;;;;13.20;5.47;;;;;;;;;;5008910;28;20568;-66
2022/11/27 07:32:31;;;;;;;14.53;5.97;;;;;;;;;;5012460;28;20202;-66
2022/11/27 07:34:56;;;;;;;15.67;6.00;;;;;;;;;;5019106;28;20201;-66
2022/11/27 07:37:22;;;;;;;12.77;5.57;;;;;;;;;;5023801;28;20234;-65
2022/11/27 07:39:47;;;;;;;11.67;5.47;;;;;;;;;;5025433;28;20194;-65
2022/11/27 07:42:13;;;;;;;11.93;5.80;;;;;;;;;;5024909;28;20713;-65
2022/11/27 07:44:38;;;;;;;13.13;5.40;;;;;;;;;;5014018;28;20194;-65
2022/11/27 07:47:03;;;;;;;15.60;6.20;;;;;;;;;;5013822;28;20268;-65
2022/11/27 07:49:29;;;;;;;10.17;5.07;;;;;;;;;;5016721;28;20324;-66
2022/11/27 07:51:54;;;;;;;13.03;5.80;;;;;;;;;;5013494;28;20629;-65
2022/11/27 07:54:19;;;;;;;10.43;6.17;;;;;;;;;;5017332;28;20277;-65
2022/11/27 07:56:45;;;;;;;13.17;5.37;;;;;;;;;;5015185;28;20301;-65
2022/11/27 07:59:10;;;;;;;15.17;5.50;;;;;;;;;;5009146;28;20186;-66
2022/11/27 08:01:35;;;;;;;11.33;5.40;;;;;;;;;;5007315;28;20179;-66
2022/11/27 08:04:01;;;;;;;14.00;6.03;;;;;;;;;;5009431;28;20186;-66
2022/11/27 08:06:27;;;;;;;13.97;6.33;;;;;;;;;;5008144;28;20183;-66
2022/11/27 08:08:55;;;;;;;15.10;5.80;;;;;;;;;;5008928;28;20545;-65
2022/11/27 08:11:30;;;;;;;13.53;5.70;;;;;;;;;;5015531;28;20194;-65
2022/11/27 08:14:01;;;;;;;11.57;5.93;;;;;;;;;;5019286;28;20725;-65
2022/11/27 08:16:27;;;;;;;10.93;5.60;;;;;;;;;;5014283;28;20206;-66
2022/11/27 08:18:53;;;;;;;15.10;5.77;;;;;;;;;;5013215;28;20199;-66
2022/11/27 08:21:18;;;;;;;16.93;6.40;;;;;;;;;;5011604;28;20189;-66
2022/11/27 08:23:44;;;;;;;10.37;5.10;;;;;;;;;;5012385;28;20195;-66
2022/11/27 08:26:11;;;;;;;11.70;5.10;;;;;;;;;;5013330;28;20194;-67
2022/11/27 08:28:37;;;;;;;12.20;5.07;;;;;;;;;;5013908;28;20182;-66
2022/11/27 08:31:03;;;;;;;11.73;5.43;;;;;;;;;;5015398;28;20183;-65
2022/11/27 08:33:30;;;;;;;18.83;5.73;;;;;;;;;;5011623;28;20729;-65
2022/11/27 08:35:55;;;;;;;12.20;5.23;;;;;;;;;;5013028;28;20195;-65
2022/11/27 08:38:21;;;;;;;13.90;5.60;;;;;;;;;;5013074;28;20222;-65
2022/11/27 08:40:57;;;;;;;14.00;6.10;;;;;;;;;;5013606;28;20175;-65
2022/11/27 08:43:24;;;;;;;9.23;4.83;;;;;;;;;;5019763;28;20597;-64
2022/11/27 08:45:49;;;;;;;10.70;5.10;;;;;;;;;;5022196;28;20178;-65
2022/11/27 08:48:15;;;;;;;14.47;5.77;;;;;;;;;;5017039;28;20728;-66
2022/11/27 08:50:40;;;;;;;11.37;6.00;;;;;;;;;;5017063;28;20210;-64
2022/11/27 08:53:06;;;;;;;9.93;5.47;;;;;;;;;;5016234;28;20194;-66
2022/11/27 08:55:31;;;;;;;9.97;5.63;;;;;;;;;;5013041;28;20179;-65
2022/11/27 08:57:56;;;;;;;10.50;5.30;;;;;;;;;;5014556;28;20286;-65
2022/11/27 09:00:21;;;;;;;10.07;5.30;;;;;;;;;;5017302;28;20294;-65
2022/11/27 09:02:47;;;;;;;12.50;5.70;;;;;;;;;;5012549;28;20229;-65
2022/11/27 09:05:12;;;;;;;9.33;4.70;;;;;;;;;;5012749;28;20178;-66
2022/11/27 09:07:39;;;;;;;9.40;5.87;;;;;;;;;;5011387;28;20855;-64
2022/11/27 09:10:06;;;;;;;10.53;5.53;;;;;;;;;;5013222;28;21439;-65
2022/11/27 09:12:31;;;;;;;12.83;5.57;;;;;;;;;;5013828;28;20264;-66
2022/11/27 09:14:56;;;;;;;13.37;5.30;;;;;;;;;;5022758;28;20232;-65
2022/11/27 09:17:22;;;;;;;13.10;5.77;;;;;;;;;;5011629;28;20190;-65
2022/11/27 09:19:47;;;;;;;17.27;5.23;;;;;;;;;;5022382;28;20190;-65
2022/11/27 09:22:13;;;;;;;12.20;5.47;;;;;;;;;;5010509;28;20745;-66
2022/11/27 09:24:38;;;;;;;11.00;5.97;;;;;;;;;;5010168;28;20678;-66
2022/11/27 09:27:03;;;;;;;15.13;6.00;;;;;;;;;;5010497;28;20175;-66
2022/11/27 09:29:29;;;;;;;11.73;5.87;;;;;;;;;;5012496;28;20197;-69
2022/11/27 09:31:54;;;;;;;12.33;5.70;;;;;;;;;;5009335;28;20209;-66
2022/11/27 09:34:19;;;;;;;13.37;5.70;;;;;;;;;;5009856;28;20187;-66
2022/11/27 09:36:45;;;;;;;13.77;6.37;;;;;;;;;;5009862;28;20226;-66
2022/11/27 09:39:10;;;;;;;12.17;5.90;;;;;;;;;;5010523;28;20647;-66
2022/11/27 09:41:50;;;;;;;9.43;5.50;;;;;;;;;;5010494;28;20534;-66
2022/11/27 09:44:39;;;;;;;14.07;5.90;;;;;;;;;;5019839;28;20186;-66
2022/11/27 09:47:31;;;;;;;13.23;6.07;;;;;;;;;;5008425;28;20178;-66
2022/11/27 09:50:05;;;;;;;13.03;6.33;;;;;;;;;;5008225;28;20293;-66
2022/11/27 09:52:37;;;;;;;16.43;5.40;;;;;;;;;;5012813;28;20175;-66
2022/11/27 09:55:09;;;;;;;13.07;5.43;;;;;;;;;;5009807;28;20190;-66
2022/11/27 09:57:37;;;;;;;14.53;5.80;;;;;;;;;;5012597;28;20237;-66
2022/11/27 10:00:21;;;;;;;12.03;5.77;;;;;;;;;;5015322;28;20547;-65
2022/11/27 10:02:47;;;;;;;12.40;6.40;;;;;;;;;;5010994;28;20211;-66
2022/11/27 10:05:25;;;;;;;11.57;5.90;;;;;;;;;;5008586;28;20210;-66
2022/11/27 10:08:30;;;;;;;10.53;6.07;;;;;;;;;;5009905;28;20833;-65
2022/11/27 10:10:58;;;;;;;14.70;5.77;;;;;;;;;;5010005;28;20284;-66
2022/11/27 10:13:51;;;;;;;14.63;6.00;;;;;;;;;;5016890;28;20206;-66
2022/11/27 10:16:25;;;;;;;12.73;6.00;;;;;;;;;;5013004;28;20213;-66
2022/11/27 10:18:55;;;;;;;10.33;5.40;;;;;;;;;;5015116;28;20187;-66
2022/11/27 10:21:34;;;;;;;12.50;5.67;;;;;;;;;;5010232;28;20229;-66
2022/11/27 10:24:44;;;;;;;14.13;5.60;;;;;;;;;;5020070;28;20194;-65
2022/11/27 10:27:28;;;;;;;13.33;6.23;;;;;;;;;;5020957;28;20196;-65
2022/11/27 10:29:55;;;;;;;15.30;6.07;;;;;;;;;;5013800;28;20171;-65
2022/11/27 10:32:32;;;;;;;15.07;5.77;;;;;;;;;;5009070;28;20203;-65
2022/11/27 10:35:09;;;;;;;11.53;5.90;;;;;;;;;;5012803;28;20557;-66
2022/11/27 10:37:46;;;;;;;10.30;5.70;;;;;;;;;;5010775;28;20690;-65
2022/11/27 10:40:12;;;;;;;12.77;5.80;;;;;;;;;;5016367;28;20179;-65
2022/11/27 10:42:44;;;;;;;15.87;6.40;;;;;;;;;;5011680;28;20409;-65
2022/11/27 10:45:28;;;;;;;10.53;5.90;;;;;;;;;;5008847;28;20193;-66
2022/11/27 10:47:54;;;;;;;11.50;5.63;;;;;;;;;;5024755;28;20182;-66
2022/11/27 10:50:20;;;;;;;12.20;6.13;;;;;;;;;;5011802;28;20193;-66
2022/11/27 10:52:52;;;;;;;13.00;5.97;;;;;;;;;;5010846;28;20555;-66
2022/11/27 10:55:53;;;;;;;11.07;5.77;;;;;;;;;;5011056;28;20650;-67
2022/11/27 10:58:27;;;;;;;12.37;5.93;;;;;;;;;;5015194;28;20234;-67
2022/11/27 11:01:00;;;;;;;11.50;5.40;;;;;;;;;;5011257;28;20248;-67
2022/11/27 11:03:25;;;;;;;14.63;6.23;;;;;;;;;;5011406;28;20235;-67
2022/11/27 11:06:00;;;;;;;15.23;5.83;;;;;;;;;;5016686;28;20257;-67
2022/11/27 11:08:28;;;;;;;14.60;6.37;;;;;;;;;;5007532;28;20708;-67
2022/11/27 11:10:56;;;;;;;14.77;6.23;;;;;;;;;;5012296;28;20174;-67
2022/11/27 11:13:26;;;;;;;12.57;6.03;;;;;;;;;;5014251;28;20187;-67
2022/11/27 11:16:04;;;;;;;10.10;5.47;;;;;;;;;;5009996;28;20198;-66
2022/11/27 11:18:32;;;;;;;9.93;5.80;;;;;;;;;;5012189;28;20186;-66
2022/11/27 11:21:00;;;;;;;10.98;5.90;;;;;;;;;;5014952;28;20220;-66
2022/11/27 11:23:32;;;;;;;15.95;6.75;;;;;;;;;;5023619;28;20197;-66
2022/11/27 11:26:06;;;;;;;15.90;6.28;;;;;;;;;;5014989;28;20175;-66
2022/11/27 11:28:38;;;;;;;18.27;7.00;;;;;;;;;;5009161;28;20221;-66
2022/11/27 11:31:08;;;;;;;13.17;6.37;;;;;;;;;;5016921;28;20924;-66
2022/11/27 11:33:46;;;;;;;12.03;6.03;;;;;;;;;;5012373;28;20293;-67
2022/11/27 11:36:12;;;;;;;15.18;7.15;;;;;;;;;;5013058;28;20292;-66
2022/11/27 11:38:43;;;;;;;12.25;5.32;;;;;;;;;;5015923;28;20646;-66
2022/11/27 11:41:08;;;;;;;12.33;6.17;;;;;;;;;;5009369;28;20232;-66
2022/11/27 11:43:36;;;;;;;12.43;6.20;;;;;;;;;;5016535;28;20183;-65
2022/11/27 11:46:22;;;;;;;14.10;5.70;;;;;;;;;;5008052;28;20186;-65
2022/11/27 11:49:00;;;;;;;14.93;6.70;;;;;;;;;;5015617;28;20267;-65
2022/11/27 11:51:41;;;;;;;13.50;6.63;;;;;;;;;;5012444;28;20594;-65
2022/11/27 11:54:30;;;;;;;10.73;5.78;;;;;;;;;;5012576;28;20186;-65
2022/11/27 11:56:59;;;;;;;12.02;5.90;;;;;;;;;;5014069;28;20197;-65
2022/11/27 11:59:53;;;;;;;11.60;5.67;;;;;;;;;;5010816;28;20183;-65
2022/11/27 12:02:51;;;;;;;11.68;6.07;;;;;;;;;;5008431;28;20170;-65
2022/11/27 12:05:20;;;;;;;15.32;6.25;;;;;;;;;;5022372;28;20189;-65
2022/11/27 12:08:12;;;;;;;11.98;5.80;;;;;;;;;;5009928;28;20232;-65
2022/11/27 12:11:06;;;;;;;13.32;5.75;;;;;;;;;;5010496;28;20187;-65
2022/11/27 12:13:52;;;;;;;11.63;5.87;;;;;;;;;;5024250;28;20186;-65
2022/11/27 12:16:18;;;;;;;10.40;6.38;;;;;;;;;;5007356;28;20182;-65
2022/11/27 12:19:17;;;;;;;12.52;5.90;;;;;;;;;;5008405;28;20220;-65
2022/11/27 12:22:04;;;;;;;14.68;6.78;;;;;;;;;;5016305;28;20186;-65
2022/11/27 12:24:46;;;;;;;14.43;6.88;;;;;;;;;;5017945;28;20178;-66
2022/11/27 12:27:38;;;;;;;15.75;7.70;;;;;;;;;;5015058;28;20179;-66
2022/11/27 12:30:13;;;;;;;15.87;8.37;;;;;;;;;;5007735;28;20218;-65
2022/11/27 12:33:04;;;;;;;13.90;7.95;;;;;;;;;;5006804;28;20593;-65
2022/11/27 12:35:37;;;;;;;14.10;7.40;;;;;;;;;;5013772;28;20488;-66
2022/11/27 12:38:23;;;;;;;11.35;6.38;;;;;;;;;;5009738;28;20227;-65
2022/11/27 12:41:13;;;;;;;12.18;6.70;;;;;;;;;;5012761;28;20183;-65
2022/11/27 12:43:44;;;;;;;13.15;6.40;;;;;;;;;;5007787;28;20185;-65
2022/11/27 12:46:23;;;;;;;14.35;6.45;;;;;;;;;;5006563;28;20186;-65
2022/11/27 12:48:51;;;;;;;14.40;7.27;;;;;;;;;;5010829;28;20232;-65
2022/11/27 12:51:30;;;;;;;15.00;6.80;;;;;;;;;;5012027;28;20560;-66
2022/11/27 12:54:04;;;;;;;13.40;7.40;;;;;;;;;;5006826;28;20182;-65
2022/11/27 12:56:47;;;;;;;10.57;6.88;;;;;;;;;;5012210;28;20201;-65
2022/11/27 12:59:26;;;;;;;14.20;7.75;;;;;;;;;;5015236;28;20178;-65
2022/11/27 13:02:04;;;;;;;16.60;7.07;;;;;;;;;;5012392;28;20193;-65
2022/11/27 13:05:08;;;;;;;12.27;6.93;;;;;;;;;;5013671;28;20277;-65
2022/11/27 13:08:00;;;;;;;11.50;7.50;;;;;;;;;;5006506;28;20198;-65
2022/11/27 13:10:41;;;;;;;15.85;7.32;;;;;;;;;;5010523;28;20195;-65
2022/11/27 13:13:30;;;;;;;15.35;7.30;;;;;;;;;;4315522;28;10000730;-65
2022/11/27 13:16:04;;;;;;;14.48;7.63;;;;;;;;;;5016265;28;20244;-65
2022/11/27 13:18:40;;;;;;;16.10;7.20;;;;;;;;;;5023368;28;20186;-65
2022/11/27 13:21:21;;;;;;;19.73;7.55;;;;;;;;;;5022539;28;20190;-65
2022/11/27 13:23:47;;;;;;;16.52;7.78;;;;;;;;;;5015453;28;20190;-65
2022/11/27 13:26:32;;;;;;;15.38;7.93;;;;;;;;;;5023565;28;20542;-65
2022/11/27 13:29:00;;;;;;;12.98;7.53;;;;;;;;;;5022909;28;20277;-65
2022/11/27 13:31:31;;;;;;;13.15;7.55;;;;;;;;;;5021208;28;20224;-65
2022/11/27 13:34:01;;;;;;;17.08;8.07;;;;;;;;;;5022378;28;20265;-65
2022/11/27 13:36:34;;;;;;;13.88;7.35;;;;;;;;;;5021610;28;20328;-65
2022/11/27 13:39:00;;;;;;;16.13;7.40;;;;;;;;;;5023437;28;20193;-65
2022/11/27 13:41:33;;;;;;;12.57;7.50;;;;;;;;;;5019181;28;20298;-65
2022/11/27 13:43:59;;;;;;;13.80;7.67;;;;;;;;;;5023499;28;20197;-66
2022/11/27 13:46:31;;;;;;;15.97;7.67;;;;;;;;;;5024737;28;20253;-65
2022/11/27 13:49:02;;;;;;;14.57;7.33;;;;;;;;;;5008205;28;20670;-65
2022/11/27 13:51:37;;;;;;;15.60;7.17;;;;;;;;;;5014486;28;20178;-65
2022/11/27 13:54:09;;;;;;;16.48;7.55;;;;;;;;;;5011298;28;20236;-65
2022/11/27 13:56:35;;;;;;;16.67;7.75;;;;;;;;;;5024584;28;20237;-65
2022/11/27 13:59:12;;;;;;;11.60;6.85;;;;;;;;;;5024028;28;20273;-65
2022/11/27 14:01:38;;;;;;;16.07;7.77;;;;;;;;;;5011665;28;20182;-65
2022/11/27 14:04:08;;;;;;;10.73;7.18;;;;;;;;;;5011357;28;20171;-65
2022/11/27 14:06:35;;;;;;;13.52;7.63;;;;;;;;;;5021060;28;20272;-65
2022/11/27 14:09:03;;;;;;;13.77;7.72;;;;;;;;;;5013396;28;20186;-65
2022/11/27 14:11:43;;;;;;;11.60;6.68;;;;;;;;;;5014109;28;20655;-65
2022/11/27 14:14:20;;;;;;;15.82;7.30;;;;;;;;;;5010055;28;20643;-65
2022/11/27 14:16:59;;;;;;;15.73;8.02;;;;;;;;;;5009559;28;20203;-65
2022/11/27 14:19:32;;;;;;;15.15;7.90;;;;;;;;;;5011140;28;20498;-65
2022/11/27 14:21:58;;;;;;;14.35;7.40;;;;;;;;;;4670511;28;10000444;-65
2022/11/27 14:24:44;;;;;;;13.30;7.30;;;;;;;;;;5014733;28;20186;-65
2022/11/27 14:27:19;;;;;;;13.00;7.85;;;;;;;;;;5011103;28;20187;-65
2022/11/27 14:29:45;;;;;;;13.00;7.70;;;;;;;;;;5021994;28;20185;-65
2022/11/27 14:32:13;;;;;;;14.30;7.43;;;;;;;;;;5021397;28;20206;-66
2022/11/27 14:34:38;;;;;;;15.50;8.50;;;;;;;;;;5009278;28;20567;-66
2022/11/27 14:37:04;;;;;;;15.00;8.67;;;;;;;;;;5018991;28;20225;-67
2022/11/27 14:39:32;;;;;;;15.82;8.32;;;;;;;;;;5021066;28;20185;-66
2022/11/27 14:42:03;;;;;;;11.83;7.30;;;;;;;;;;5025022;28;20189;-66
2022/11/27 14:44:29;;;;;;;19.25;8.02;;;;;;;;;;5015991;28;20255;-67
2022/11/27 14:46:57;;;;;;;13.30;8.03;;;;;;;;;;5007167;28;20182;-66
2022/11/27 14:49:26;;;;;;;15.83;7.80;;;;;;;;;;5021503;28;20185;-66
2022/11/27 14:51:52;;;;;;;15.52;8.18;;;;;;;;;;5021301;28;20187;-66